University of Illinois Willard Airport
KCMI : rendu visible

Aérodrome :











RETROUVEZ-NOUS SUR...

 
LOGIN :

S'inscrire | Disclaimer

   EN    FR    IT 

 









Légende :    VFR   VFR Marginal   IFR   IFR Intensif   IFR Très Intensif
Visi : 
Plafond : 
>= 8 km
>= 3000ft
5 à 8 km
1000 à 3000 ft
1500m à 5 km
500 à 1000 ft
800 à 1500m
200 à 500 ft
< 800m
< 200 ft
Symboles :   Orages  Brouillard  Fortes neiges  Fortes précipitations  Vent > 20 kt






- Altitude de l'aérodrome : 755 ft
- Code IATA : CMI


KCMI - University of Illinois Willard

DERNIER METAR :
  • 010541Z AUTO 01008KT 10SM SCT019 02/M01 A3003 RMK AO2 T00221006

METARs EXPIRÉS :
  • 010525Z AUTO 36007KT 10SM SCT020 03/00 A3003 RMK AO2 T00280000
  • 010453Z AUTO 01007KT 10SM BKN020 03/01 A3003 RMK AO2 SLP173 T00330006
  • 010353Z 03009KT 10SM FEW018 OVC026 04/01 A3003 RMK AO2 SLP172 T00440006
  • 010253Z 01011KT 10SM OVC026 05/01 A3002 RMK AO2 SLP170 T00500011 53008

TAF KCMI
Valide du 01 à 06h jusqu'au 02 à 06h UTC


010539Z 0106/0206 36007KT P6SM BKN020
FM010800 36005KT P6SM BKN015
FM011000 35005KT P6SM OVC006
FM011300 36005KT P6SM OVC015
FM011500 VRB04KT P6SM BKN025
FM011600 VRB04KT P6SM BKN040



MET'MAP, la Météo Aéronautique d'un coup d'oeil ! - Copyright ORBIFLY Décembre 2007 - Disclaimer

ORBIFLY MET'MAP TEAM :

Programmation & Développement : Alexandra Zaïnal
Sur une idée originale de : Baudouin d'Aumeries
Assistance à la programmation : Marc-Olivier Méhu
Soutien technique & logistique : Manuel Goepfert

Contact : metmap@orbifly.com




SOURCES & CREDITS :

   NOAA       Earth
Advisory